East Leverett, Massachusetts
Current Conditions -  °F | °C
As of 11:52 PM on Thursday 27 Nov 2014 (Local Time) from KORE Reporting Station
Light Snow Light Snow  
Wind Chill: 22°   Ceiling: NA
Heat Index: 27°   Visibility: 8mi
Dew Point: 25°   Wind: 5mph
Humidity: 92%   Direction: 300°WNW
Pressure: 30"   Gusts: NA
Location:  42.4786°N, 72.4839°W
Report Text: KORE 280452Z AUTO 30004KT 8SM -SN M03/M04 A3000 RMK AO2 SLPNO P0000 T10281039 $
Loading
Personal Weather Stations






























Interactive Weather Map New forecast layout! Learn more

10-Day Weather Forecast

Advertisements
Track Severe Weather on mobile